PWSweather.com
Personal Weather Stations
Station Observations

SkegnessGB

Lat: 53.147585, Lon: 0.345774

Elevation: 18

Station Type: Fine Offset WH3080

http://www.skegnessweather.info/

High Low Average
Temperature 77.7°F25.4°C 44.1°F6.7°C 62.0°F16.7°C
Dew Point 61.4°F16.3°C 44.1°F6.7°C 53.2°F11.8°C
Winds 13.7 mph 22.0 kmh Calm Calm 6.0 mph SSE9.7 kmh SSE
Wind Gusts 16.7 mph26.9 kmh -- 7.0 mph11.3 kmh
Humidity 100% 44% 76%
Pressure 29.96 in1014.6 mb 29.73 in1006.8 mb -
Precipitation 0.00 in0.0 mm - -
Hour Temp Dew Point Humidity Winds Wind Gusts Pressure Precip Precip Rate Daily Precip Total
12:00 AM 51.3°F10.7°C 50.2°F10.1°C 96% 0.2 mph NW0.3 kmh NW 2.5 mph4.0 kmh 29.96 in1014.6 mb 0.00 in0.0 mm 0.00 in0.0 mm 0.00 in0.0 mm
12:10 AM 51.3°F10.7°C 49.9°F9.9°C 95% 0.1 mph SSE0.2 kmh SSE 1.7 mph2.7 kmh 29.95 in1014.2 mb 0.00 in0.0 mm 0.00 in0.0 mm 0.00 in0.0 mm
12:20 AM 51.3°F10.7°C 49.9°F9.9°C 95% 0.7 mph WNW1.1 kmh WNW 2.5 mph4.0 kmh 29.95 in1014.2 mb 0.00 in0.0 mm 0.00 in0.0 mm 0.00 in0.0 mm
12:30 AM 51.3°F10.7°C 49.9°F9.9°C 95% 1.3 mph NNW2.1 kmh NNW 2.5 mph4.0 kmh 29.94 in1013.9 mb 0.00 in0.0 mm 0.00 in0.0 mm 0.00 in0.0 mm
12:40 AM 50.9°F10.5°C 49.2°F9.6°C 94% 0.9 mph WSW1.4 kmh WSW 1.7 mph2.7 kmh 29.94 in1013.9 mb 0.00 in0.0 mm 0.00 in0.0 mm 0.00 in0.0 mm
12:50 AM 50.7°F10.4°C 49.1°F9.5°C 94% 1.1 mph NNE1.8 kmh NNE 3.4 mph5.5 kmh 29.93 in1013.5 mb 0.00 in0.0 mm 0.00 in0.0 mm 0.00 in0.0 mm
01:00 AM 50.2°F10.1°C 48.8°F9.3°C 95% 0.6 mph N1.0 kmh N 1.7 mph2.7 kmh 29.93 in1013.5 mb 0.00 in0.0 mm 0.00 in0.0 mm 0.00 in0.0 mm
01:10 AM 50.0°F10.0°C 48.6°F9.2°C 95% 0.5 mph N0.8 kmh N 3.4 mph5.5 kmh 29.92 in1013.2 mb 0.00 in0.0 mm 0.00 in0.0 mm 0.00 in0.0 mm
01:20 AM 49.8°F9.9°C 48.7°F9.3°C 96% 0.6 mph N1.0 kmh N 2.5 mph4.0 kmh 29.92 in1013.2 mb 0.00 in0.0 mm 0.00 in0.0 mm 0.00 in0.0 mm
01:30 AM 49.6°F9.8°C 48.5°F9.2°C 96% 0.4 mph NNW0.6 kmh NNW 2.5 mph4.0 kmh 29.92 in1013.2 mb 0.00 in0.0 mm 0.00 in0.0 mm 0.00 in0.0 mm
01:40 AM 49.5°F9.7°C 48.4°F9.1°C 96% Calm Calm 0.7 mph1.1 kmh 29.92 in1013.2 mb 0.00 in0.0 mm 0.00 in0.0 mm 0.00 in0.0 mm
01:50 AM 49.3°F9.6°C 48.5°F9.2°C 97% Calm Calm 0.7 mph1.1 kmh 29.91 in1012.9 mb 0.00 in0.0 mm 0.00 in0.0 mm 0.00 in0.0 mm
02:00 AM 48.7°F9.3°C 47.9°F8.8°C 97% Calm Calm -- 29.91 in1012.9 mb 0.00 in0.0 mm 0.00 in0.0 mm 0.00 in0.0 mm
02:10 AM 47.8°F8.8°C 47.0°F8.3°C 97% Calm Calm -- 29.91 in1012.9 mb 0.00 in0.0 mm 0.00 in0.0 mm 0.00 in0.0 mm
02:20 AM 47.3°F8.5°C 46.5°F8.1°C 97% Calm Calm -- 29.90 in1012.5 mb 0.00 in0.0 mm 0.00 in0.0 mm 0.00 in0.0 mm
02:30 AM 46.9°F8.3°C 46.4°F8.0°C 98% Calm Calm -- 29.90 in1012.5 mb 0.00 in0.0 mm 0.00 in0.0 mm 0.00 in0.0 mm
02:40 AM 46.4°F8.0°C 45.9°F7.7°C 98% Calm Calm -- 29.89 in1012.2 mb 0.00 in0.0 mm 0.00 in0.0 mm 0.00 in0.0 mm
02:50 AM 46.0°F7.8°C 45.5°F7.5°C 98% Calm Calm -- 29.89 in1012.2 mb 0.00 in0.0 mm 0.00 in0.0 mm 0.00 in0.0 mm
03:00 AM 45.7°F7.6°C 45.4°F7.4°C 99% Calm Calm -- 29.89 in1012.2 mb 0.00 in0.0 mm 0.00 in0.0 mm 0.00 in0.0 mm
03:10 AM 45.3°F7.4°C 45.1°F7.3°C 99% Calm Calm -- 29.89 in1012.2 mb 0.00 in0.0 mm 0.00 in0.0 mm 0.00 in0.0 mm
03:20 AM 45.1°F7.3°C 45.1°F7.3°C 100% Calm Calm -- 29.88 in1011.9 mb 0.00 in0.0 mm 0.00 in0.0 mm 0.00 in0.0 mm
03:30 AM 44.8°F7.1°C 44.8°F7.1°C 100% Calm Calm -- 29.89 in1012.2 mb 0.00 in0.0 mm 0.00 in0.0 mm 0.00 in0.0 mm
03:40 AM 44.8°F7.1°C 44.8°F7.1°C 100% Calm Calm -- 29.88 in1011.9 mb 0.00 in0.0 mm 0.00 in0.0 mm 0.00 in0.0 mm
03:50 AM 44.6°F7.0°C 44.6°F7.0°C 100% Calm Calm -- 29.88 in1011.9 mb 0.00 in0.0 mm 0.00 in0.0 mm 0.00 in0.0 mm
04:00 AM 44.2°F6.8°C 44.2°F6.8°C 100% Calm Calm -- 29.87 in1011.5 mb 0.00 in0.0 mm 0.00 in0.0 mm 0.00 in0.0 mm
04:10 AM 44.1°F6.7°C 44.1°F6.7°C 100% Calm Calm -- 29.87 in1011.5 mb 0.00 in0.0 mm 0.00 in0.0 mm 0.00 in0.0 mm
04:20 AM 44.2°F6.8°C 44.2°F6.8°C 100% Calm Calm -- 29.86 in1011.2 mb 0.00 in0.0 mm 0.00 in0.0 mm 0.00 in0.0 mm
04:30 AM 44.8°F7.1°C 44.8°F7.1°C 100% Calm Calm -- 29.86 in1011.2 mb 0.00 in0.0 mm 0.00 in0.0 mm 0.00 in0.0 mm
04:40 AM 45.0°F7.2°C 45.0°F7.2°C 100% Calm Calm -- 29.86 in1011.2 mb 0.00 in0.0 mm 0.00 in0.0 mm 0.00 in0.0 mm
04:50 AM 45.5°F7.5°C 45.5°F7.5°C 100% Calm Calm 0.7 mph1.1 kmh 29.86 in1011.2 mb 0.00 in0.0 mm 0.00 in0.0 mm 0.00 in0.0 mm
05:00 AM 46.2°F7.9°C 46.2°F7.9°C 100% Calm Calm 0.7 mph1.1 kmh 29.86 in1011.2 mb 0.00 in0.0 mm 0.00 in0.0 mm 0.00 in0.0 mm
05:10 AM 46.9°F8.3°C 46.9°F8.3°C 100% Calm Calm -- 29.85 in1010.8 mb 0.00 in0.0 mm 0.00 in0.0 mm 0.00 in0.0 mm
05:20 AM 47.7°F8.7°C 47.7°F8.7°C 100% Calm Calm 0.7 mph1.1 kmh 29.85 in1010.8 mb 0.00 in0.0 mm 0.00 in0.0 mm 0.00 in0.0 mm
05:30 AM 48.9°F9.4°C 48.9°F9.4°C 100% 0.1 mph SE0.2 kmh SE 1.7 mph2.7 kmh 29.85 in1010.8 mb 0.00 in0.0 mm 0.00 in0.0 mm 0.00 in0.0 mm
05:40 AM 49.8°F9.9°C 49.8°F9.9°C 100% 0.8 mph SE1.3 kmh SE 2.5 mph4.0 kmh 29.85 in1010.8 mb 0.00 in0.0 mm 0.00 in0.0 mm 0.00 in0.0 mm
05:50 AM 51.1°F10.6°C 51.1°F10.6°C 100% 2.0 mph SSE3.2 kmh SSE 4.2 mph6.8 kmh 29.85 in1010.8 mb 0.00 in0.0 mm 0.00 in0.0 mm 0.00 in0.0 mm
06:00 AM 52.2°F11.2°C 52.2°F11.2°C 100% 2.4 mph S3.9 kmh S 4.2 mph6.8 kmh 29.85 in1010.8 mb 0.00 in0.0 mm 0.00 in0.0 mm 0.00 in0.0 mm
06:10 AM 53.1°F11.7°C 52.2°F11.2°C 97% 2.9 mph WSW4.7 kmh WSW 3.4 mph5.5 kmh 29.84 in1010.5 mb 0.00 in0.0 mm 0.00 in0.0 mm 0.00 in0.0 mm
06:20 AM 54.0°F12.2°C 51.4°F10.8°C 91% 5.5 mph SSE8.9 kmh SSE 6.6 mph10.6 kmh 29.84 in1010.5 mb 0.00 in0.0 mm 0.00 in0.0 mm 0.00 in0.0 mm
06:30 AM 55.0°F12.8°C 50.3°F10.2°C 84% 7.3 mph SSE11.7 kmh SSE 7.6 mph12.2 kmh 29.84 in1010.5 mb 0.00 in0.0 mm 0.00 in0.0 mm 0.00 in0.0 mm
06:40 AM 55.8°F13.2°C 50.7°F10.4°C 83% 6.6 mph SSE10.6 kmh SSE 6.6 mph10.6 kmh 29.84 in1010.5 mb 0.00 in0.0 mm 0.00 in0.0 mm 0.00 in0.0 mm
06:50 AM 56.3°F13.5°C 50.9°F10.5°C 82% 8.4 mph SSE13.5 kmh SSE 10.8 mph17.4 kmh 29.84 in1010.5 mb 0.00 in0.0 mm 0.00 in0.0 mm 0.00 in0.0 mm
07:00 AM 56.7°F13.7°C 51.6°F10.9°C 83% 7.3 mph S11.7 kmh S 9.1 mph14.6 kmh 29.85 in1010.8 mb 0.00 in0.0 mm 0.00 in0.0 mm 0.00 in0.0 mm
07:10 AM 57.0°F13.9°C 51.9°F11.1°C 83% 6.3 mph SSE10.1 kmh SSE 6.6 mph10.6 kmh 29.84 in1010.5 mb 0.00 in0.0 mm 0.00 in0.0 mm 0.00 in0.0 mm
07:20 AM 57.2°F14.0°C 51.8°F11.0°C 82% 8.5 mph S13.7 kmh S 9.1 mph14.6 kmh 29.84 in1010.5 mb 0.00 in0.0 mm 0.00 in0.0 mm 0.00 in0.0 mm
07:30 AM 57.4°F14.1°C 52.3°F11.3°C 83% 8.8 mph SSE14.2 kmh SSE 8.4 mph13.5 kmh 29.84 in1010.5 mb 0.00 in0.0 mm 0.00 in0.0 mm 0.00 in0.0 mm
07:40 AM 57.6°F14.2°C 52.4°F11.3°C 83% 9.1 mph SSE14.6 kmh SSE 10.1 mph16.3 kmh 29.83 in1010.2 mb 0.00 in0.0 mm 0.00 in0.0 mm 0.00 in0.0 mm
07:50 AM 58.1°F14.5°C 53.0°F11.7°C 83% 7.7 mph SSE12.4 kmh SSE 9.1 mph14.6 kmh 29.83 in1010.2 mb 0.00 in0.0 mm 0.00 in0.0 mm 0.00 in0.0 mm
08:00 AM 58.6°F14.8°C 53.5°F11.9°C 83% 6.8 mph SSE10.9 kmh SSE 7.6 mph12.2 kmh 29.83 in1010.2 mb 0.00 in0.0 mm 0.00 in0.0 mm 0.00 in0.0 mm
08:10 AM 59.5°F15.3°C 54.4°F12.4°C 83% 4.4 mph S7.1 kmh S 8.4 mph13.5 kmh 29.83 in1010.2 mb 0.00 in0.0 mm 0.00 in0.0 mm 0.00 in0.0 mm
08:20 AM 60.1°F15.6°C 54.6°F12.6°C 82% 8.7 mph SE14.0 kmh SE 9.1 mph14.6 kmh 29.83 in1010.2 mb 0.00 in0.0 mm 0.00 in0.0 mm 0.00 in0.0 mm
08:30 AM 60.8°F16.0°C 54.2°F12.3°C 79% 8.9 mph SW14.3 kmh SW 9.1 mph14.6 kmh 29.83 in1010.2 mb 0.00 in0.0 mm 0.00 in0.0 mm 0.00 in0.0 mm
08:40 AM 62.1°F16.7°C 55.1°F12.8°C 78% 9.2 mph SSW14.8 kmh SSW 10.1 mph16.3 kmh 29.82 in1009.8 mb 0.00 in0.0 mm 0.00 in0.0 mm 0.00 in0.0 mm
08:50 AM 65.3°F18.5°C 56.8°F13.8°C 74% 7.7 mph S12.4 kmh S 9.1 mph14.6 kmh 29.82 in1009.8 mb 0.00 in0.0 mm 0.00 in0.0 mm 0.00 in0.0 mm
09:00 AM 66.6°F19.2°C 57.6°F14.2°C 73% 9.1 mph S14.6 kmh S 9.1 mph14.6 kmh 29.82 in1009.8 mb 0.00 in0.0 mm 0.00 in0.0 mm 0.00 in0.0 mm
09:10 AM 67.8°F19.9°C 58.1°F14.5°C 71% 9.0 mph S14.5 kmh S 11.8 mph19.0 kmh 29.82 in1009.8 mb 0.00 in0.0 mm 0.00 in0.0 mm 0.00 in0.0 mm
09:20 AM 68.9°F20.5°C 59.1°F15.1°C 71% 8.0 mph S12.9 kmh S 10.8 mph17.4 kmh 29.81 in1009.5 mb 0.00 in0.0 mm 0.00 in0.0 mm 0.00 in0.0 mm
09:30 AM 70.3°F21.3°C 58.0°F14.4°C 65% 7.1 mph S11.4 kmh S 8.4 mph13.5 kmh 29.81 in1009.5 mb 0.00 in0.0 mm 0.00 in0.0 mm 0.00 in0.0 mm
09:40 AM 71.6°F22.0°C 58.3°F14.6°C 63% 7.1 mph SSW11.4 kmh SSW 8.4 mph13.5 kmh 29.80 in1009.1 mb 0.00 in0.0 mm 0.00 in0.0 mm 0.00 in0.0 mm
09:50 AM 71.6°F22.0°C 57.9°F14.4°C 62% 9.1 mph S14.6 kmh S 10.1 mph16.3 kmh 29.79 in1008.8 mb 0.00 in0.0 mm 0.00 in0.0 mm 0.00 in0.0 mm
10:00 AM 72.3°F22.4°C 58.6°F14.8°C 62% 9.4 mph SSW15.1 kmh SSW 10.8 mph17.4 kmh 29.80 in1009.1 mb 0.00 in0.0 mm 0.00 in0.0 mm 0.00 in0.0 mm
10:10 AM 72.7°F22.6°C 58.5°F14.7°C 61% 8.3 mph SE13.4 kmh SE 9.1 mph14.6 kmh 29.80 in1009.1 mb 0.00 in0.0 mm 0.00 in0.0 mm 0.00 in0.0 mm
10:20 AM 73.2°F22.9°C 58.5°F14.7°C 60% 12.0 mph S19.3 kmh S 12.5 mph20.1 kmh 29.79 in1008.8 mb 0.00 in0.0 mm 0.00 in0.0 mm 0.00 in0.0 mm
10:30 AM 73.4°F23.0°C 57.7°F14.3°C 58% 10.1 mph SE16.3 kmh SE 10.8 mph17.4 kmh 29.79 in1008.8 mb 0.00 in0.0 mm 0.00 in0.0 mm 0.00 in0.0 mm
10:40 AM 73.2°F22.9°C 57.6°F14.2°C 58% 12.3 mph S19.8 kmh S 12.5 mph20.1 kmh 29.79 in1008.8 mb 0.00 in0.0 mm 0.00 in0.0 mm 0.00 in0.0 mm
10:50 AM 73.8°F23.2°C 58.5°F14.7°C 59% 12.1 mph SSW19.5 kmh SSW 12.5 mph20.1 kmh 29.78 in1008.5 mb 0.00 in0.0 mm 0.00 in0.0 mm 0.00 in0.0 mm
11:00 AM 74.1°F23.4°C 57.9°F14.4°C 57% 11.4 mph S18.3 kmh S 10.8 mph17.4 kmh 29.78 in1008.5 mb 0.00 in0.0 mm 0.00 in0.0 mm 0.00 in0.0 mm
11:10 AM 74.7°F23.7°C 57.9°F14.4°C 56% 12.7 mph SW20.4 kmh SW 12.5 mph20.1 kmh 29.78 in1008.5 mb 0.00 in0.0 mm 0.00 in0.0 mm 0.00 in0.0 mm
11:20 AM 75.4°F24.1°C 59.1°F15.1°C 57% 9.8 mph S15.8 kmh S 12.5 mph20.1 kmh 29.78 in1008.5 mb 0.00 in0.0 mm 0.00 in0.0 mm 0.00 in0.0 mm
11:30 AM 75.0°F23.9°C 57.2°F14.0°C 54% 12.5 mph S20.1 kmh S 14.3 mph23.0 kmh 29.78 in1008.5 mb 0.00 in0.0 mm 0.00 in0.0 mm 0.00 in0.0 mm
11:40 AM 75.7°F24.3°C 58.4°F14.7°C 55% 10.2 mph S16.4 kmh S 13.3 mph21.4 kmh 29.77 in1008.1 mb 0.00 in0.0 mm 0.00 in0.0 mm 0.00 in0.0 mm
11:50 AM 76.5°F24.7°C 58.6°F14.8°C 54% 10.0 mph SSW16.1 kmh SSW 10.8 mph17.4 kmh 29.76 in1007.8 mb 0.00 in0.0 mm 0.00 in0.0 mm 0.00 in0.0 mm
12:00 PM 76.5°F24.7°C 58.6°F14.8°C 54% 10.8 mph S17.4 kmh S 12.5 mph20.1 kmh 29.76 in1007.8 mb 0.00 in0.0 mm 0.00 in0.0 mm 0.00 in0.0 mm
12:10 PM 77.2°F25.1°C 58.7°F14.8°C 53% 7.0 mph S11.3 kmh S 10.1 mph16.3 kmh 29.77 in1008.1 mb 0.00 in0.0 mm 0.00 in0.0 mm 0.00 in0.0 mm
12:20 PM 77.0°F25.0°C 58.6°F14.8°C 53% 11.6 mph S18.7 kmh S 12.5 mph20.1 kmh 29.76 in1007.8 mb 0.00 in0.0 mm 0.00 in0.0 mm 0.00 in0.0 mm
12:30 PM 76.3°F24.6°C 57.9°F14.4°C 53% 13.2 mph SSE21.2 kmh SSE 15.0 mph24.1 kmh 29.76 in1007.8 mb 0.00 in0.0 mm 0.00 in0.0 mm 0.00 in0.0 mm
12:40 PM 77.2°F25.1°C 59.2°F15.1°C 54% 9.5 mph S15.3 kmh S 15.0 mph24.1 kmh 29.75 in1007.5 mb 0.00 in0.0 mm 0.00 in0.0 mm 0.00 in0.0 mm
12:50 PM 76.8°F24.9°C 58.4°F14.7°C 53% 11.8 mph SSE19.0 kmh SSE 14.3 mph23.0 kmh 29.76 in1007.8 mb 0.00 in0.0 mm 0.00 in0.0 mm 0.00 in0.0 mm
01:00 PM 77.2°F25.1°C 58.7°F14.8°C 53% 10.8 mph SE17.4 kmh SE 14.3 mph23.0 kmh 29.75 in1007.5 mb 0.00 in0.0 mm 0.00 in0.0 mm 0.00 in0.0 mm
01:10 PM 76.5°F24.7°C 58.1°F14.5°C 53% 13.2 mph SSE21.2 kmh SSE 16.0 mph25.7 kmh 29.75 in1007.5 mb 0.00 in0.0 mm 0.00 in0.0 mm 0.00 in0.0 mm
01:20 PM 76.3°F24.6°C 57.4°F14.1°C 52% 13.7 mph S22.0 kmh S 13.3 mph21.4 kmh 29.75 in1007.5 mb 0.00 in0.0 mm 0.00 in0.0 mm 0.00 in0.0 mm
01:30 PM 76.5°F24.7°C 58.1°F14.5°C 53% 12.8 mph SSW20.6 kmh SSW 13.3 mph21.4 kmh 29.75 in1007.5 mb 0.00 in0.0 mm 0.00 in0.0 mm 0.00 in0.0 mm
01:40 PM 76.6°F24.8°C 58.7°F14.8°C 54% 11.8 mph SSW19.0 kmh SSW 13.3 mph21.4 kmh 29.75 in1007.5 mb 0.00 in0.0 mm 0.00 in0.0 mm 0.00 in0.0 mm
01:50 PM 76.8°F24.9°C 58.9°F14.9°C 54% 11.1 mph S17.9 kmh S 11.8 mph19.0 kmh 29.74 in1007.1 mb 0.00 in0.0 mm 0.00 in0.0 mm 0.00 in0.0 mm
02:00 PM 76.5°F24.7°C 58.6°F14.8°C 54% 12.9 mph SSE20.8 kmh SSE 13.3 mph21.4 kmh 29.74 in1007.1 mb 0.00 in0.0 mm 0.00 in0.0 mm 0.00 in0.0 mm
02:10 PM 76.5°F24.7°C 60.1°F15.6°C 57% 12.7 mph SSE20.4 kmh SSE 16.7 mph26.9 kmh 29.74 in1007.1 mb 0.00 in0.0 mm 0.00 in0.0 mm 0.00 in0.0 mm
02:20 PM 75.7°F24.3°C 60.4°F15.8°C 59% 12.3 mph S19.8 kmh S 12.5 mph20.1 kmh 29.74 in1007.1 mb 0.00 in0.0 mm 0.00 in0.0 mm 0.00 in0.0 mm
02:30 PM 77.7°F25.4°C 61.3°F16.3°C 57% 10.1 mph S16.3 kmh S 11.8 mph19.0 kmh 29.73 in1006.8 mb 0.00 in0.0 mm 0.00 in0.0 mm 0.00 in0.0 mm
02:40 PM 76.8°F24.9°C 60.9°F16.1°C 58% 11.8 mph SW19.0 kmh SW 12.5 mph20.1 kmh 29.74 in1007.1 mb 0.00 in0.0 mm 0.00 in0.0 mm 0.00 in0.0 mm
02:50 PM 76.8°F24.9°C 61.4°F16.3°C 59% 10.9 mph S17.5 kmh S 12.5 mph20.1 kmh 29.74 in1007.1 mb 0.00 in0.0 mm 0.00 in0.0 mm 0.00 in0.0 mm
03:00 PM 76.6°F24.8°C 59.8°F15.4°C 56% 11.2 mph S18.0 kmh S 14.3 mph23.0 kmh 29.74 in1007.1 mb 0.00 in0.0 mm 0.00 in0.0 mm 0.00 in0.0 mm
03:10 PM 76.3°F24.6°C 59.4°F15.2°C 56% 10.0 mph SE16.1 kmh SE 10.8 mph17.4 kmh 29.74 in1007.1 mb 0.00 in0.0 mm 0.00 in0.0 mm 0.00 in0.0 mm
03:20 PM 76.8°F24.9°C 58.9°F14.9°C 54% 11.7 mph SSW18.8 kmh SSW 13.3 mph21.4 kmh 29.73 in1006.8 mb 0.00 in0.0 mm 0.00 in0.0 mm 0.00 in0.0 mm
03:30 PM 75.6°F24.2°C 58.3°F14.6°C 55% 10.0 mph WNW16.1 kmh WNW 14.3 mph23.0 kmh 29.74 in1007.1 mb 0.00 in0.0 mm 0.00 in0.0 mm 0.00 in0.0 mm
03:40 PM 74.8°F23.8°C 57.6°F14.2°C 55% 8.6 mph NW13.8 kmh NW 10.1 mph16.3 kmh 29.73 in1006.8 mb 0.00 in0.0 mm 0.00 in0.0 mm 0.00 in0.0 mm
03:50 PM 76.1°F24.5°C 58.8°F14.9°C 55% 9.3 mph SSW15.0 kmh SSW 13.3 mph21.4 kmh 29.74 in1007.1 mb 0.00 in0.0 mm 0.00 in0.0 mm 0.00 in0.0 mm
04:00 PM 75.7°F24.3°C 57.9°F14.4°C 54% 7.3 mph SW11.7 kmh SW 11.8 mph19.0 kmh 29.74 in1007.1 mb 0.00 in0.0 mm 0.00 in0.0 mm 0.00 in0.0 mm
04:10 PM 76.3°F24.6°C 57.4°F14.1°C 52% 8.3 mph ESE13.4 kmh ESE 9.1 mph14.6 kmh 29.74 in1007.1 mb 0.00 in0.0 mm 0.00 in0.0 mm 0.00 in0.0 mm
04:20 PM 77.0°F25.0°C 57.5°F14.2°C 51% 7.3 mph SW11.7 kmh SW 8.4 mph13.5 kmh 29.73 in1006.8 mb 0.00 in0.0 mm 0.00 in0.0 mm 0.00 in0.0 mm
04:30 PM 76.5°F24.7°C 55.3°F12.9°C 48% 6.7 mph WNW10.8 kmh WNW 7.6 mph12.2 kmh 29.73 in1006.8 mb 0.00 in0.0 mm 0.00 in0.0 mm 0.00 in0.0 mm
04:40 PM 75.7°F24.3°C 56.9°F13.8°C 52% 7.5 mph SW12.1 kmh SW 10.1 mph16.3 kmh 29.74 in1007.1 mb 0.00 in0.0 mm 0.00 in0.0 mm 0.00 in0.0 mm
04:50 PM 74.8°F23.8°C 54.9°F12.7°C 50% 8.3 mph S13.4 kmh S 10.1 mph16.3 kmh 29.74 in1007.1 mb 0.00 in0.0 mm 0.00 in0.0 mm 0.00 in0.0 mm
05:00 PM 74.5°F23.6°C 55.2°F12.9°C 51% 6.5 mph WSW10.5 kmh WSW 8.4 mph13.5 kmh 29.74 in1007.1 mb 0.00 in0.0 mm 0.00 in0.0 mm 0.00 in0.0 mm
05:10 PM 73.6°F23.1°C 52.1°F11.2°C 47% 9.2 mph WSW14.8 kmh WSW 11.8 mph19.0 kmh 29.74 in1007.1 mb 0.00 in0.0 mm 0.00 in0.0 mm 0.00 in0.0 mm
05:20 PM 73.0°F22.8°C 51.0°F10.6°C 46% 8.0 mph SW12.9 kmh SW 11.8 mph19.0 kmh 29.74 in1007.1 mb 0.00 in0.0 mm 0.00 in0.0 mm 0.00 in0.0 mm
05:30 PM 72.7°F22.6°C 50.1°F10.1°C 45% 8.3 mph SW13.4 kmh SW 10.8 mph17.4 kmh 29.75 in1007.5 mb 0.00 in0.0 mm 0.00 in0.0 mm 0.00 in0.0 mm
05:40 PM 72.7°F22.6°C 51.3°F10.7°C 47% 5.5 mph SW8.9 kmh SW 7.6 mph12.2 kmh 29.75 in1007.5 mb 0.00 in0.0 mm 0.00 in0.0 mm 0.00 in0.0 mm
05:50 PM 72.5°F22.5°C 50.5°F10.3°C 46% 5.9 mph SSW9.5 kmh SSW 10.1 mph16.3 kmh 29.75 in1007.5 mb 0.00 in0.0 mm 0.00 in0.0 mm 0.00 in0.0 mm
06:00 PM 72.0°F22.2°C 48.9°F9.4°C 44% 6.2 mph WSW10.0 kmh WSW 8.4 mph13.5 kmh 29.75 in1007.5 mb 0.00 in0.0 mm 0.00 in0.0 mm 0.00 in0.0 mm
06:10 PM 71.1°F21.7°C 49.8°F9.9°C 47% 6.8 mph E10.9 kmh E 7.6 mph12.2 kmh 29.75 in1007.5 mb 0.00 in0.0 mm 0.00 in0.0 mm 0.00 in0.0 mm
06:20 PM 70.3°F21.3°C 50.8°F10.4°C 50% 4.6 mph NW7.4 kmh NW 4.9 mph7.9 kmh 29.75 in1007.5 mb 0.00 in0.0 mm 0.00 in0.0 mm 0.00 in0.0 mm
06:30 PM 69.4°F20.8°C 53.5°F11.9°C 57% 5.1 mph WSW8.2 kmh WSW 7.6 mph12.2 kmh 29.76 in1007.8 mb 0.00 in0.0 mm 0.00 in0.0 mm 0.00 in0.0 mm
06:40 PM 67.3°F19.6°C 55.5°F13.1°C 66% 8.7 mph S14.0 kmh S 11.8 mph19.0 kmh 29.76 in1007.8 mb 0.00 in0.0 mm 0.00 in0.0 mm 0.00 in0.0 mm
06:50 PM 64.8°F18.2°C 55.1°F12.8°C 71% 6.4 mph SSW10.3 kmh SSW 7.6 mph12.2 kmh 29.77 in1008.1 mb 0.00 in0.0 mm 0.00 in0.0 mm 0.00 in0.0 mm
07:00 PM 63.0°F17.2°C 54.5°F12.5°C 74% 5.9 mph WSW9.5 kmh WSW 7.6 mph12.2 kmh 29.79 in1008.8 mb 0.00 in0.0 mm 0.00 in0.0 mm 0.00 in0.0 mm
07:10 PM 61.7°F16.5°C 54.1°F12.3°C 76% 7.4 mph SSE11.9 kmh SSE 9.1 mph14.6 kmh 29.79 in1008.8 mb 0.00 in0.0 mm 0.00 in0.0 mm 0.00 in0.0 mm
07:20 PM 60.6°F15.9°C 55.1°F12.8°C 82% 5.5 mph SSE8.9 kmh SSE 7.6 mph12.2 kmh 29.80 in1009.1 mb 0.00 in0.0 mm 0.00 in0.0 mm 0.00 in0.0 mm
07:30 PM 60.1°F15.6°C 54.6°F12.6°C 82% 5.8 mph W9.3 kmh W 10.1 mph16.3 kmh 29.80 in1009.1 mb 0.00 in0.0 mm 0.00 in0.0 mm 0.00 in0.0 mm
07:40 PM 59.5°F15.3°C 54.0°F12.2°C 82% 4.8 mph NW7.7 kmh NW 6.6 mph10.6 kmh 29.80 in1009.1 mb 0.00 in0.0 mm 0.00 in0.0 mm 0.00 in0.0 mm
07:50 PM 59.4°F15.2°C 54.2°F12.3°C 83% 2.8 mph S4.5 kmh S 4.2 mph6.8 kmh 29.81 in1009.5 mb 0.00 in0.0 mm 0.00 in0.0 mm 0.00 in0.0 mm
08:00 PM 59.2°F15.1°C 54.0°F12.2°C 83% 2.5 mph S4.0 kmh S 4.2 mph6.8 kmh 29.80 in1009.1 mb 0.00 in0.0 mm 0.00 in0.0 mm 0.00 in0.0 mm
08:10 PM 59.0°F15.0°C 54.2°F12.3°C 84% 3.0 mph SSE4.8 kmh SSE 3.4 mph5.5 kmh 29.81 in1009.5 mb 0.00 in0.0 mm 0.00 in0.0 mm 0.00 in0.0 mm
08:20 PM 58.8°F14.9°C 54.0°F12.2°C 84% 2.5 mph S4.0 kmh S 4.2 mph6.8 kmh 29.81 in1009.5 mb 0.00 in0.0 mm 0.00 in0.0 mm 0.00 in0.0 mm
08:30 PM 58.3°F14.6°C 53.5°F11.9°C 84% 4.6 mph S7.4 kmh S 6.6 mph10.6 kmh 29.81 in1009.5 mb 0.00 in0.0 mm 0.00 in0.0 mm 0.00 in0.0 mm
08:40 PM 57.9°F14.4°C 53.1°F11.7°C 84% 4.0 mph SSW6.4 kmh SSW 6.6 mph10.6 kmh 29.82 in1009.8 mb 0.00 in0.0 mm 0.00 in0.0 mm 0.00 in0.0 mm
08:50 PM 57.4°F14.1°C 52.6°F11.4°C 84% 3.8 mph S6.1 kmh S 5.9 mph9.5 kmh 29.81 in1009.5 mb 0.00 in0.0 mm 0.00 in0.0 mm 0.00 in0.0 mm
09:00 PM 57.2°F14.0°C 52.4°F11.3°C 84% 4.1 mph SW6.6 kmh SW 6.6 mph10.6 kmh 29.83 in1010.2 mb 0.00 in0.0 mm 0.00 in0.0 mm 0.00 in0.0 mm
09:10 PM 56.8°F13.8°C 52.1°F11.2°C 84% 4.5 mph S7.2 kmh S 6.6 mph10.6 kmh 29.82 in1009.8 mb 0.00 in0.0 mm 0.00 in0.0 mm 0.00 in0.0 mm
09:20 PM 56.7°F13.7°C 52.2°F11.2°C 85% 3.3 mph S5.3 kmh S 4.2 mph6.8 kmh 29.82 in1009.8 mb 0.00 in0.0 mm 0.00 in0.0 mm 0.00 in0.0 mm
09:30 PM 56.5°F13.6°C 52.0°F11.1°C 85% 2.8 mph E4.5 kmh E 5.9 mph9.5 kmh 29.83 in1010.2 mb 0.00 in0.0 mm 0.00 in0.0 mm 0.00 in0.0 mm
09:40 PM 56.3°F13.5°C 52.2°F11.2°C 86% 2.7 mph SSW4.3 kmh SSW 4.2 mph6.8 kmh 29.84 in1010.5 mb 0.00 in0.0 mm 0.00 in0.0 mm 0.00 in0.0 mm
09:50 PM 56.3°F13.5°C 52.2°F11.2°C 86% 2.0 mph SE3.2 kmh SE 3.4 mph5.5 kmh 29.84 in1010.5 mb 0.00 in0.0 mm 0.00 in0.0 mm 0.00 in0.0 mm
10:00 PM 56.1°F13.4°C 52.3°F11.3°C 87% 1.5 mph SW2.4 kmh SW 2.5 mph4.0 kmh 29.84 in1010.5 mb 0.00 in0.0 mm 0.00 in0.0 mm 0.00 in0.0 mm
10:10 PM 55.9°F13.3°C 52.1°F11.2°C 87% 1.0 mph WNW1.6 kmh WNW 1.7 mph2.7 kmh 29.84 in1010.5 mb 0.00 in0.0 mm 0.00 in0.0 mm 0.00 in0.0 mm
10:20 PM 55.9°F13.3°C 52.4°F11.3°C 88% 1.4 mph W2.3 kmh W 3.4 mph5.5 kmh 29.84 in1010.5 mb 0.00 in0.0 mm 0.00 in0.0 mm 0.00 in0.0 mm
10:30 PM 55.9°F13.3°C 52.4°F11.3°C 88% 1.2 mph S1.9 kmh S 1.7 mph2.7 kmh 29.84 in1010.5 mb 0.00 in0.0 mm 0.00 in0.0 mm 0.00 in0.0 mm
10:40 PM 55.9°F13.3°C 52.4°F11.3°C 88% 1.6 mph E2.6 kmh E 2.5 mph4.0 kmh 29.84 in1010.5 mb 0.00 in0.0 mm 0.00 in0.0 mm 0.00 in0.0 mm
10:50 PM 55.8°F13.2°C 52.6°F11.4°C 89% 2.5 mph WSW4.0 kmh WSW 3.4 mph5.5 kmh 29.84 in1010.5 mb 0.00 in0.0 mm 0.00 in0.0 mm 0.00 in0.0 mm
11:00 PM 55.8°F13.2°C 52.6°F11.4°C 89% 2.0 mph SSW3.2 kmh SSW 4.2 mph6.8 kmh 29.84 in1010.5 mb 0.00 in0.0 mm 0.00 in0.0 mm 0.00 in0.0 mm
11:10 PM 55.6°F13.1°C 52.4°F11.3°C 89% 1.0 mph W1.6 kmh W 1.7 mph2.7 kmh 29.84 in1010.5 mb 0.00 in0.0 mm 0.00 in0.0 mm 0.00 in0.0 mm
11:20 PM 55.4°F13.0°C 52.2°F11.2°C 89% Calm Calm 0.7 mph1.1 kmh 29.84 in1010.5 mb 0.00 in0.0 mm 0.00 in0.0 mm 0.00 in0.0 mm
11:30 PM 55.0°F12.8°C 52.2°F11.2°C 90% 0.2 mph WNW0.3 kmh WNW 1.7 mph2.7 kmh 29.84 in1010.5 mb 0.00 in0.0 mm 0.00 in0.0 mm 0.00 in0.0 mm
11:40 PM 54.9°F12.7°C 52.3°F11.3°C 91% 0.8 mph WNW1.3 kmh WNW 1.7 mph2.7 kmh 29.84 in1010.5 mb 0.00 in0.0 mm 0.00 in0.0 mm 0.00 in0.0 mm
11:50 PM 54.7°F12.6°C 52.1°F11.2°C 91% 1.4 mph SSW2.3 kmh SSW 2.5 mph4.0 kmh 29.84 in1010.5 mb 0.00 in0.0 mm 0.00 in0.0 mm 0.00 in0.0 mm